Terminal Aerodrome Forecast
Issued by NWS

Home | Current Version | Previous Version | Text Only | Print | Product List | Glossary On
Versions: 1 2 3 4 5 6 7 8 9 10 11 12 13 14 15 16 17 18 19 20 21 22 23 24 25 26 27 28
257
FTAK31 PAFG 220534
TAFAOT
TAF
PAOT 220534Z 2206/2306 02006KT P6SM VCSH OVC023
     FM221000 06012KT P6SM VCSH SCT023 BKN050
     FM221600 07012KT P6SM SCT050 BKN100=

USA.gov is the U.S. government's official web portal to all federal, state and local government web resources and services.